sensor_id;sensor_type;location;lat;lon;timestamp;pressure;altitude;pressure_sealevel;temperature;humidity
6449;BME280;3257;52.298;13.690;2022-11-11T00:01:04;78455.13;;;-144.77;85.17
6449;BME280;3257;52.298;13.690;2022-11-11T00:03:31;78475.00;;;-144.77;85.45
6449;BME280;3257;52.298;13.690;2022-11-11T00:06:03;78484.94;;;-144.77;85.82
6449;BME280;3257;52.298;13.690;2022-11-11T00:08:31;78480.97;;;-144.77;86.03
6449;BME280;3257;52.298;13.690;2022-11-11T00:11:02;78504.81;;;-144.77;86.17
6449;BME280;3257;52.298;13.690;2022-11-11T00:13:30;78514.78;;;-144.77;86.62
6449;BME280;3257;52.298;13.690;2022-11-11T00:16:03;78520.72;;;-144.77;86.94
6449;BME280;3257;52.298;13.690;2022-11-11T00:18:30;78514.78;;;-144.77;86.90
6449;BME280;3257;52.298;13.690;2022-11-11T00:21:15;78484.94;;;-144.77;86.37
6449;BME280;3257;52.298;13.690;2022-11-11T00:24:01;78508.81;;;-144.77;86.98
6449;BME280;3257;52.298;13.690;2022-11-11T00:26:46;78506.81;;;-144.77;86.91
6449;BME280;3257;52.298;13.690;2022-11-11T00:29:13;78488.91;;;-144.77;87.18
6449;BME280;3257;52.298;13.690;2022-11-11T00:31:39;78496.88;;;-144.77;87.26
6449;BME280;3257;52.298;13.690;2022-11-11T00:34:26;78510.78;;;-144.77;87.17
6449;BME280;3257;52.298;13.690;2022-11-11T00:36:52;78512.78;;;-144.77;87.26
6449;BME280;3257;52.298;13.690;2022-11-11T00:39:19;78530.69;;;-144.77;87.27
6449;BME280;3257;52.298;13.690;2022-11-11T00:41:46;78536.63;;;-144.77;87.17
6449;BME280;3257;52.298;13.690;2022-11-11T00:44:12;78526.69;;;-144.77;86.88
6449;BME280;3257;52.298;13.690;2022-11-11T00:46:39;78524.72;;;-144.77;87.40
6449;BME280;3257;52.298;13.690;2022-11-11T00:49:24;78512.78;;;-144.77;87.17
6449;BME280;3257;52.298;13.690;2022-11-11T00:52:09;78524.72;;;-144.77;87.24
6449;BME280;3257;52.298;13.690;2022-11-11T00:54:35;78532.66;;;-144.77;87.20
6449;BME280;3257;52.298;13.690;2022-11-11T00:57:02;78534.66;;;-144.77;87.18
6449;BME280;3257;52.298;13.690;2022-11-11T00:59:29;78542.59;;;-144.77;87.59
6449;BME280;3257;52.298;13.690;2022-11-11T01:01:55;78538.63;;;-144.77;87.53
6449;BME280;3257;52.298;13.690;2022-11-11T01:04:22;78542.59;;;-144.77;87.65
6449;BME280;3257;52.298;13.690;2022-11-11T01:06:48;78528.69;;;-144.77;87.37
6449;BME280;3257;52.298;13.690;2022-11-11T01:09:15;78542.59;;;-144.77;87.60
6449;BME280;3257;52.298;13.690;2022-11-11T01:11:42;78528.69;;;-144.77;87.88
6449;BME280;3257;52.298;13.690;2022-11-11T01:14:08;78540.63;;;-144.77;87.64
6449;BME280;3257;52.298;13.690;2022-11-11T01:16:35;78556.53;;;-144.77;87.63
6449;BME280;3257;52.298;13.690;2022-11-11T01:19:02;78554.53;;;-144.77;87.92
6449;BME280;3257;52.298;13.690;2022-11-11T01:21:29;78544.59;;;-144.77;87.81
6449;BME280;3257;52.298;13.690;2022-11-11T01:23:55;78530.69;;;-144.77;87.77
6449;BME280;3257;52.298;13.690;2022-11-11T01:26:25;78548.56;;;-144.77;88.04
6449;BME280;3257;52.298;13.690;2022-11-11T01:28:57;78538.63;;;-144.77;88.29
6449;BME280;3257;52.298;13.690;2022-11-11T01:31:25;78530.69;;;-144.77;88.09
6449;BME280;3257;52.298;13.690;2022-11-11T01:33:53;78552.53;;;-144.77;87.97
6449;BME280;3257;52.298;13.690;2022-11-11T01:36:25;78552.53;;;-144.77;88.20
6449;BME280;3257;52.298;13.690;2022-11-11T01:38:54;78546.59;;;-144.77;88.37
6449;BME280;3257;52.298;13.690;2022-11-11T01:41:27;78552.53;;;-144.77;88.38
6449;BME280;3257;52.298;13.690;2022-11-11T01:43:59;78538.63;;;-144.77;88.46
6449;BME280;3257;52.298;13.690;2022-11-11T01:46:30;78548.56;;;-144.77;88.78
6449;BME280;3257;52.298;13.690;2022-11-11T01:52:24;78524.72;;;-144.77;88.89
6449;BME280;3257;52.298;13.690;2022-11-11T01:54:56;78538.63;;;-144.77;88.77
6449;BME280;3257;52.298;13.690;2022-11-11T01:57:37;78526.69;;;-144.77;88.58
6449;BME280;3257;52.298;13.690;2022-11-11T02:00:09;78540.63;;;-144.77;88.50
6449;BME280;3257;52.298;13.690;2022-11-11T02:02:43;78532.66;;;-144.77;88.64
6449;BME280;3257;52.298;13.690;2022-11-11T02:05:13;78540.63;;;-144.77;88.97
6449;BME280;3257;52.298;13.690;2022-11-11T02:08:02;78536.63;;;-144.77;88.76
6449;BME280;3257;52.298;13.690;2022-11-11T02:10:31;78520.72;;;-144.77;88.27
6449;BME280;3257;52.298;13.690;2022-11-11T02:12:59;78536.63;;;-144.77;88.49
6449;BME280;3257;52.298;13.690;2022-11-11T02:15:44;78536.63;;;-144.77;88.66
6449;BME280;3257;52.298;13.690;2022-11-11T02:18:11;78516.75;;;-144.77;88.50
6449;BME280;3257;52.298;13.690;2022-11-11T02:20:39;78536.63;;;-144.77;87.84
6449;BME280;3257;52.298;13.690;2022-11-11T02:25:36;78550.56;;;-144.77;88.09
6449;BME280;3257;52.298;13.690;2022-11-11T02:28:05;78538.63;;;-144.77;88.32
6449;BME280;3257;52.298;13.690;2022-11-11T02:30:33;78546.59;;;-144.77;88.24
6449;BME280;3257;52.298;13.690;2022-11-11T02:32:59;78556.53;;;-144.77;87.72
6449;BME280;3257;52.298;13.690;2022-11-11T02:35:35;78554.53;;;-144.77;87.79
6449;BME280;3257;52.298;13.690;2022-11-11T02:38:04;78576.41;;;-144.77;87.84
6449;BME280;3257;52.298;13.690;2022-11-11T02:40:39;78582.38;;;-144.77;88.16
6449;BME280;3257;52.298;13.690;2022-11-11T02:43:32;78592.31;;;-144.77;88.66
6449;BME280;3257;52.298;13.690;2022-11-11T02:46:02;78588.34;;;-144.77;88.69
6449;BME280;3257;52.298;13.690;2022-11-11T02:48:35;78594.31;;;-144.77;88.83
6449;BME280;3257;52.298;13.690;2022-11-11T02:51:02;78598.28;;;-144.77;88.79
6449;BME280;3257;52.298;13.690;2022-11-11T02:53:29;78586.34;;;-144.77;89.24
6449;BME280;3257;52.298;13.690;2022-11-11T02:55:55;78580.38;;;-144.77;89.50
6449;BME280;3257;52.298;13.690;2022-11-11T02:58:22;78584.34;;;-144.77;89.12
6449;BME280;3257;52.298;13.690;2022-11-11T03:00:49;78574.41;;;-144.77;89.19
6449;BME280;3257;52.298;13.690;2022-11-11T03:03:15;78562.50;;;-144.77;88.85
6449;BME280;3257;52.298;13.690;2022-11-11T03:05:42;78582.38;;;-144.77;89.07
6449;BME280;3257;52.298;13.690;2022-11-11T03:08:09;78560.50;;;-144.77;89.20
6449;BME280;3257;52.298;13.690;2022-11-11T03:10:36;78576.41;;;-144.77;88.88
6449;BME280;3257;52.298;13.690;2022-11-11T03:13:02;78580.38;;;-144.77;88.74
6449;BME280;3257;52.298;13.690;2022-11-11T03:15:29;78576.41;;;-144.77;89.34
6449;BME280;3257;52.298;13.690;2022-11-11T03:17:55;78566.47;;;-144.77;88.94
6449;BME280;3257;52.298;13.690;2022-11-11T03:20:22;78552.53;;;-144.77;88.72
6449;BME280;3257;52.298;13.690;2022-11-11T03:23:13;78556.53;;;-144.77;88.36
6449;BME280;3257;52.298;13.690;2022-11-11T03:25:42;78558.50;;;-144.77;88.35
6449;BME280;3257;52.298;13.690;2022-11-11T03:28:11;78570.44;;;-144.77;88.59
6449;BME280;3257;52.298;13.690;2022-11-11T03:30:39;78562.50;;;-144.77;88.44
6449;BME280;3257;52.298;13.690;2022-11-11T03:33:09;78552.53;;;-144.77;87.87
6449;BME280;3257;52.298;13.690;2022-11-11T03:35:37;78540.63;;;-144.77;87.74
6449;BME280;3257;52.298;13.690;2022-11-11T03:38:06;78548.56;;;-144.77;87.89
6449;BME280;3257;52.298;13.690;2022-11-11T03:40:47;78542.59;;;-144.77;88.19
6449;BME280;3257;52.298;13.690;2022-11-11T03:43:16;78522.72;;;-144.77;88.28
6449;BME280;3257;52.298;13.690;2022-11-11T03:45:43;78512.78;;;-144.77;87.87
6449;BME280;3257;52.298;13.690;2022-11-11T03:48:10;78512.78;;;-144.77;87.40
6449;BME280;3257;52.298;13.690;2022-11-11T03:50:37;78512.78;;;-144.77;87.14
6449;BME280;3257;52.298;13.690;2022-11-11T03:53:04;78502.84;;;-144.77;87.27
6449;BME280;3257;52.298;13.690;2022-11-11T03:55:31;78496.88;;;-144.77;87.39
6449;BME280;3257;52.298;13.690;2022-11-11T03:57:58;78494.88;;;-144.77;87.27
6449;BME280;3257;52.298;13.690;2022-11-11T04:00:26;78484.94;;;-144.77;87.64
6449;BME280;3257;52.298;13.690;2022-11-11T04:03:09;78498.88;;;-144.77;87.24
6449;BME280;3257;52.298;13.690;2022-11-11T04:05:54;78486.94;;;-144.77;87.48
6449;BME280;3257;52.298;13.690;2022-11-11T04:08:39;78484.94;;;-144.77;87.28
6449;BME280;3257;52.298;13.690;2022-11-11T04:11:27;78471.03;;;-144.77;87.01
6449;BME280;3257;52.298;13.690;2022-11-11T04:13:58;78496.88;;;-144.77;87.22
6449;BME280;3257;52.298;13.690;2022-11-11T04:16:45;78498.88;;;-144.77;86.98
6449;BME280;3257;52.298;13.690;2022-11-11T04:19:12;78508.81;;;-144.77;87.29
6449;BME280;3257;52.298;13.690;2022-11-11T04:21:57;78488.91;;;-144.77;87.33
6449;BME280;3257;52.298;13.690;2022-11-11T04:24:23;78498.88;;;-144.77;87.14
6449;BME280;3257;52.298;13.690;2022-11-11T04:27:14;78498.88;;;-144.77;86.77
6449;BME280;3257;52.298;13.690;2022-11-11T04:29:40;78504.81;;;-144.77;87.16
6449;BME280;3257;52.298;13.690;2022-11-11T04:32:10;78500.84;;;-144.77;87.56
6449;BME280;3257;52.298;13.690;2022-11-11T04:35:09;78502.84;;;-144.77;86.85
6449;BME280;3257;52.298;13.690;2022-11-11T04:37:43;78502.84;;;-144.77;87.23
6449;BME280;3257;52.298;13.690;2022-11-11T04:40:11;78494.88;;;-144.77;86.77
6449;BME280;3257;52.298;13.690;2022-11-11T04:42:57;78482.94;;;-144.77;86.21
6449;BME280;3257;52.298;13.690;2022-11-11T04:45:23;78498.88;;;-144.77;86.59
6449;BME280;3257;52.298;13.690;2022-11-11T04:47:58;78510.78;;;-144.77;87.13
6449;BME280;3257;52.298;13.690;2022-11-11T04:50:28;78504.81;;;-144.77;86.54
6449;BME280;3257;52.298;13.690;2022-11-11T04:52:55;78496.88;;;-144.77;86.67
6449;BME280;3257;52.298;13.690;2022-11-11T04:55:24;78496.88;;;-144.77;86.91
6449;BME280;3257;52.298;13.690;2022-11-11T04:58:25;78498.88;;;-144.77;86.34
6449;BME280;3257;52.298;13.690;2022-11-11T05:00:52;78506.81;;;-144.77;86.57
6449;BME280;3257;52.298;13.690;2022-11-11T05:03:18;78504.81;;;-144.77;86.37
6449;BME280;3257;52.298;13.690;2022-11-11T05:05:55;78496.88;;;-144.77;86.17
6449;BME280;3257;52.298;13.690;2022-11-11T05:08:42;78500.84;;;-144.77;86.20
6449;BME280;3257;52.298;13.690;2022-11-11T05:11:35;78484.94;;;-144.77;85.69
6449;BME280;3257;52.298;13.690;2022-11-11T05:14:04;78488.91;;;-144.77;86.03
6449;BME280;3257;52.298;13.690;2022-11-11T05:16:52;78500.84;;;-144.77;85.44
6449;BME280;3257;52.298;13.690;2022-11-11T05:19:37;78478.97;;;-144.77;85.86
6449;BME280;3257;52.298;13.690;2022-11-11T05:22:27;78496.88;;;-144.77;86.23
6449;BME280;3257;52.298;13.690;2022-11-11T05:24:54;78498.88;;;-144.77;86.36
6449;BME280;3257;52.298;13.690;2022-11-11T05:27:40;78506.81;;;-144.77;85.68
6449;BME280;3257;52.298;13.690;2022-11-11T05:30:09;78486.94;;;-144.77;85.67
6449;BME280;3257;52.298;13.690;2022-11-11T05:32:36;78492.91;;;-144.77;86.17
6449;BME280;3257;52.298;13.690;2022-11-11T05:35:04;78486.94;;;-144.77;85.84
6449;BME280;3257;52.298;13.690;2022-11-11T05:37:31;78500.84;;;-144.77;86.04
6449;BME280;3257;52.298;13.690;2022-11-11T05:39:58;78498.88;;;-144.77;85.64
6449;BME280;3257;52.298;13.690;2022-11-11T05:42:25;78496.88;;;-144.77;85.70
6449;BME280;3257;52.298;13.690;2022-11-11T05:44:51;78500.84;;;-144.77;85.57
6449;BME280;3257;52.298;13.690;2022-11-11T05:47:18;78516.75;;;-144.77;85.57
6449;BME280;3257;52.298;13.690;2022-11-11T05:49:45;78512.78;;;-144.77;85.93
6449;BME280;3257;52.298;13.690;2022-11-11T05:52:13;78516.75;;;-144.77;85.62
6449;BME280;3257;52.298;13.690;2022-11-11T05:54:42;78516.75;;;-144.77;85.56
6449;BME280;3257;52.298;13.690;2022-11-11T05:57:09;78534.66;;;-144.77;85.57
6449;BME280;3257;52.298;13.690;2022-11-11T05:59:36;78556.53;;;-144.77;85.44
6449;BME280;3257;52.298;13.690;2022-11-11T06:02:02;78554.53;;;-144.77;85.69
6449;BME280;3257;52.298;13.690;2022-11-11T06:04:29;78550.56;;;-144.77;86.12
6449;BME280;3257;52.298;13.690;2022-11-11T06:06:55;78540.63;;;-144.77;85.80
6449;BME280;3257;52.298;13.690;2022-11-11T06:09:22;78548.56;;;-144.77;85.60
6449;BME280;3257;52.298;13.690;2022-11-11T06:11:49;78534.66;;;-144.77;85.65
6449;BME280;3257;52.298;13.690;2022-11-11T06:14:15;78546.59;;;-144.77;85.68
6449;BME280;3257;52.298;13.690;2022-11-11T06:16:42;78558.50;;;-144.77;85.57
6449;BME280;3257;52.298;13.690;2022-11-11T06:19:08;78560.50;;;-144.77;85.25
6449;BME280;3257;52.298;13.690;2022-11-11T06:21:35;78568.44;;;-144.77;85.29
6449;BME280;3257;52.298;13.690;2022-11-11T06:24:22;78554.53;;;-144.77;85.35
6449;BME280;3257;52.298;13.690;2022-11-11T06:26:53;78558.50;;;-144.77;85.72
6449;BME280;3257;52.298;13.690;2022-11-11T06:29:19;78562.50;;;-144.77;85.82
6449;BME280;3257;52.298;13.690;2022-11-11T06:31:46;78572.44;;;-144.77;85.59
6449;BME280;3257;52.298;13.690;2022-11-11T06:34:12;78568.44;;;-144.77;85.89
6449;BME280;3257;52.298;13.690;2022-11-11T06:36:39;78580.38;;;-144.77;86.30
6449;BME280;3257;52.298;13.690;2022-11-11T06:39:06;78554.53;;;-144.77;86.73
6449;BME280;3257;52.298;13.690;2022-11-11T06:41:32;78558.50;;;-144.77;86.09
6449;BME280;3257;52.298;13.690;2022-11-11T06:43:59;78582.38;;;-144.77;85.97
6449;BME280;3257;52.298;13.690;2022-11-11T06:46:25;78568.44;;;-144.77;86.24
6449;BME280;3257;52.298;13.690;2022-11-11T06:48:52;78566.47;;;-144.77;86.59
6449;BME280;3257;52.298;13.690;2022-11-11T06:51:19;78554.53;;;-144.77;86.62
6449;BME280;3257;52.298;13.690;2022-11-11T06:53:45;78538.63;;;-144.77;85.44
6449;BME280;3257;52.298;13.690;2022-11-11T06:56:13;78556.53;;;-144.77;85.63
6449;BME280;3257;52.298;13.690;2022-11-11T06:58:40;78562.50;;;-144.77;85.73
6449;BME280;3257;52.298;13.690;2022-11-11T07:01:07;78556.53;;;-144.77;85.81
6449;BME280;3257;52.298;13.690;2022-11-11T07:03:35;78558.50;;;-144.77;85.90
6449;BME280;3257;52.298;13.690;2022-11-11T07:06:03;78532.66;;;-144.77;84.87
6449;BME280;3257;52.298;13.690;2022-11-11T07:08:30;78526.69;;;-144.77;85.22
6449;BME280;3257;52.298;13.690;2022-11-11T07:10:57;78516.75;;;-144.77;84.82
6449;BME280;3257;52.298;13.690;2022-11-11T07:13:30;78504.81;;;-144.77;84.52
6449;BME280;3257;52.298;13.690;2022-11-11T07:15:57;78504.81;;;-144.77;84.44
6449;BME280;3257;52.298;13.690;2022-11-11T07:18:23;78486.94;;;-144.77;84.03
6449;BME280;3257;52.298;13.690;2022-11-11T07:20:50;78494.88;;;-144.77;84.50
6449;BME280;3257;52.298;13.690;2022-11-11T07:23:17;78500.84;;;-144.77;83.52
6449;BME280;3257;52.298;13.690;2022-11-11T07:25:43;78500.84;;;-144.77;83.39
6449;BME280;3257;52.298;13.690;2022-11-11T07:28:10;78478.97;;;-144.77;83.15
6449;BME280;3257;52.298;13.690;2022-11-11T07:30:37;78496.88;;;-144.77;82.16
6449;BME280;3257;52.298;13.690;2022-11-11T07:33:04;78494.88;;;-144.77;81.79
6449;BME280;3257;52.298;13.690;2022-11-11T07:35:30;78478.97;;;-144.77;82.57
6449;BME280;3257;52.298;13.690;2022-11-11T07:38:18;78469.03;;;-144.77;82.24
6449;BME280;3257;52.298;13.690;2022-11-11T07:41:00;78461.09;;;-144.77;82.97
6449;BME280;3257;52.298;13.690;2022-11-11T07:43:28;78469.03;;;-144.77;82.86
6449;BME280;3257;52.298;13.690;2022-11-11T07:45:55;78467.06;;;-144.77;82.96
6449;BME280;3257;52.298;13.690;2022-11-11T07:48:23;78449.16;;;-144.77;83.29
6449;BME280;3257;52.298;13.690;2022-11-11T07:50:53;78447.16;;;-144.77;83.94
6449;BME280;3257;52.298;13.690;2022-11-11T07:53:20;78443.19;;;-144.77;83.14
6449;BME280;3257;52.298;13.690;2022-11-11T07:55:47;78437.22;;;-144.77;82.94
6449;BME280;3257;52.298;13.690;2022-11-11T07:58:13;78425.28;;;-144.77;82.24
6449;BME280;3257;52.298;13.690;2022-11-11T08:00:40;78415.34;;;-144.77;80.59
6449;BME280;3257;52.298;13.690;2022-11-11T08:03:07;78405.41;;;-144.77;80.91
6449;BME280;3257;52.298;13.690;2022-11-11T08:05:34;78407.41;;;-144.77;80.98
6449;BME280;3257;52.298;13.690;2022-11-11T08:08:03;78397.47;;;-144.77;79.15
6449;BME280;3257;52.298;13.690;2022-11-11T08:10:30;78401.44;;;-144.77;80.01
6449;BME280;3257;52.298;13.690;2022-11-11T08:12:57;78383.53;;;-144.77;79.44
6449;BME280;3257;52.298;13.690;2022-11-11T08:15:42;78397.47;;;-144.77;79.37
6449;BME280;3257;52.298;13.690;2022-11-11T08:18:09;78385.53;;;-144.77;78.82
6449;BME280;3257;52.298;13.690;2022-11-11T08:20:36;78379.56;;;-144.77;79.40
6449;BME280;3257;52.298;13.690;2022-11-11T08:23:10;78371.63;;;-144.77;79.14
6449;BME280;3257;52.298;13.690;2022-11-11T08:26:07;78343.78;;;-144.77;78.61
6449;BME280;3257;52.298;13.690;2022-11-11T08:28:34;78339.81;;;-144.77;77.84
6449;BME280;3257;52.298;13.690;2022-11-11T08:31:01;78347.75;;;-144.77;76.62
6449;BME280;3257;52.298;13.690;2022-11-11T08:33:30;78345.75;;;-144.77;75.67
6449;BME280;3257;52.298;13.690;2022-11-11T08:36:00;78331.84;;;-144.77;76.42
6449;BME280;3257;52.298;13.690;2022-11-11T08:38:30;78337.81;;;-144.77;76.52
6449;BME280;3257;52.298;13.690;2022-11-11T08:41:01;78315.94;;;-144.77;76.12
6449;BME280;3257;52.298;13.690;2022-11-11T08:43:30;78331.84;;;-144.77;74.94
6449;BME280;3257;52.298;13.690;2022-11-11T08:46:03;78357.69;;;-144.77;74.71
6449;BME280;3257;52.298;13.690;2022-11-11T08:48:31;78325.88;;;-144.77;74.69
6449;BME280;3257;52.298;13.690;2022-11-11T08:50:58;78325.88;;;-144.77;73.89
6449;BME280;3257;52.298;13.690;2022-11-11T08:53:25;78317.94;;;-144.77;74.72
6449;BME280;3257;52.298;13.690;2022-11-11T08:55:53;78302.03;;;-144.77;73.29
6449;BME280;3257;52.298;13.690;2022-11-11T08:58:19;78290.09;;;-144.77;74.22
6449;BME280;3257;52.298;13.690;2022-11-11T09:00:46;78288.09;;;-144.77;74.41
6449;BME280;3257;52.298;13.690;2022-11-11T09:03:13;78302.03;;;-144.77;72.49
6449;BME280;3257;52.298;13.690;2022-11-11T09:05:41;78294.06;;;-144.77;72.74
6449;BME280;3257;52.298;13.690;2022-11-11T09:08:07;78278.16;;;-144.77;72.77
6449;BME280;3257;52.298;13.690;2022-11-11T09:10:35;78268.22;;;-144.77;72.90
6449;BME280;3257;52.298;13.690;2022-11-11T09:13:03;78292.09;;;-144.77;71.57
6449;BME280;3257;52.298;13.690;2022-11-11T09:15:33;78270.22;;;-144.77;71.27
6449;BME280;3257;52.298;13.690;2022-11-11T09:18:14;78284.13;;;-144.77;71.13
6449;BME280;3257;52.298;13.690;2022-11-11T09:20:43;78258.28;;;-144.77;70.83
6449;BME280;3257;52.298;13.690;2022-11-11T09:23:13;78222.50;;;-144.77;71.72
6449;BME280;3257;52.298;13.690;2022-11-11T09:25:39;78206.59;;;-144.77;70.89
6449;BME280;3257;52.298;13.690;2022-11-11T09:28:07;78184.72;;;-144.77;71.87
6449;BME280;3257;52.298;13.690;2022-11-11T09:30:34;78160.88;;;-144.77;71.35
6449;BME280;3257;52.298;13.690;2022-11-11T09:33:02;78188.69;;;-144.77;69.02
6449;BME280;3257;52.298;13.690;2022-11-11T09:35:30;78160.88;;;-144.77;68.00
6449;BME280;3257;52.298;13.690;2022-11-11T09:37:58;78144.97;;;-144.77;66.69
6449;BME280;3257;52.298;13.690;2022-11-11T09:40:32;78125.09;;;-144.77;67.42
6449;BME280;3257;52.298;13.690;2022-11-11T09:43:11;78121.09;;;-144.77;67.92
6449;BME280;3257;52.298;13.690;2022-11-11T09:51:16;78059.47;;;-144.77;64.46
6449;BME280;3257;52.298;13.690;2022-11-11T09:53:53;78043.56;;;-144.77;64.29
6449;BME280;3257;52.298;13.690;2022-11-11T09:56:25;78039.59;;;-144.77;64.56
6449;BME280;3257;52.298;13.690;2022-11-11T09:59:18;78027.66;;;-144.77;64.20
6449;BME280;3257;52.298;13.690;2022-11-11T10:01:50;78041.59;;;-144.77;63.67
6449;BME280;3257;52.298;13.690;2022-11-11T10:04:34;78029.66;;;-144.77;64.07
6449;BME280;3257;52.298;13.690;2022-11-11T10:07:10;78049.53;;;-144.77;63.55
6449;BME280;3257;52.298;13.690;2022-11-11T10:09:56;78041.59;;;-144.77;63.31
6449;BME280;3257;52.298;13.690;2022-11-11T10:12:34;78033.63;;;-144.77;62.73
6449;BME280;3257;52.298;13.690;2022-11-11T10:15:13;78063.44;;;-144.77;62.60
6449;BME280;3257;52.298;13.690;2022-11-11T10:20:41;78051.53;;;-144.77;63.60
6449;BME280;3257;52.298;13.690;2022-11-11T10:23:17;78049.53;;;-144.77;65.65
6449;BME280;3257;52.298;13.690;2022-11-11T10:25:56;78041.59;;;-144.77;62.25
6449;BME280;3257;52.298;13.690;2022-11-11T10:28:30;78063.44;;;-144.77;63.29
6449;BME280;3257;52.298;13.690;2022-11-11T10:31:00;78061.47;;;-144.77;63.19
6449;BME280;3257;52.298;13.690;2022-11-11T10:36:14;78037.59;;;-144.77;64.04
6449;BME280;3257;52.298;13.690;2022-11-11T10:39:03;78021.69;;;-144.77;63.58
6449;BME280;3257;52.298;13.690;2022-11-11T10:41:40;78031.66;;;-144.77;62.18
6449;BME280;3257;52.298;13.690;2022-11-11T10:44:24;78033.63;;;-144.77;62.73
6449;BME280;3257;52.298;13.690;2022-11-11T10:47:04;78047.56;;;-144.77;61.58
6449;BME280;3257;52.298;13.690;2022-11-11T10:49:36;78043.56;;;-144.77;62.99
6449;BME280;3257;52.298;13.690;2022-11-11T10:52:11;78071.41;;;-144.77;62.16
6449;BME280;3257;52.298;13.690;2022-11-11T11:00:11;78051.53;;;-144.77;61.81
6449;BME280;3257;52.298;13.690;2022-11-11T11:05:19;78051.53;;;-144.77;62.60
6449;BME280;3257;52.298;13.690;2022-11-11T11:07:56;78033.63;;;-144.77;61.36
6449;BME280;3257;52.298;13.690;2022-11-11T11:10:31;78025.69;;;-144.77;63.49
6449;BME280;3257;52.298;13.690;2022-11-11T11:13:15;77993.88;;;-144.77;61.45
6449;BME280;3257;52.298;13.690;2022-11-11T11:15:46;77974.00;;;-144.77;61.50
6449;BME280;3257;52.298;13.690;2022-11-11T11:18:17;77975.97;;;-144.77;60.39
6449;BME280;3257;52.298;13.690;2022-11-11T11:20:58;77974.00;;;-144.77;60.82
6449;BME280;3257;52.298;13.690;2022-11-11T11:26:02;77968.03;;;-144.77;59.80
6449;BME280;3257;52.298;13.690;2022-11-11T11:28:31;77946.16;;;-144.77;61.71
6449;BME280;3257;52.298;13.690;2022-11-11T11:31:00;77934.22;;;-144.77;59.70
6449;BME280;3257;52.298;13.690;2022-11-11T11:33:53;77916.34;;;-144.77;60.67
6449;BME280;3257;52.298;13.690;2022-11-11T11:36:20;77924.28;;;-144.77;61.12
6449;BME280;3257;52.298;13.690;2022-11-11T11:38:49;77946.16;;;-144.77;59.09
6449;BME280;3257;52.298;13.690;2022-11-11T11:41:17;77938.22;;;-144.77;59.69
6449;BME280;3257;52.298;13.690;2022-11-11T11:43:44;77948.16;;;-144.77;58.86
6449;BME280;3257;52.298;13.690;2022-11-11T11:46:15;77958.09;;;-144.77;59.98
6449;BME280;3257;52.298;13.690;2022-11-11T11:49:02;77924.28;;;-144.77;61.64
6449;BME280;3257;52.298;13.690;2022-11-11T11:51:56;77930.25;;;-144.77;61.12
6449;BME280;3257;52.298;13.690;2022-11-11T11:55:02;77944.16;;;-144.77;60.62
6449;BME280;3257;52.298;13.690;2022-11-11T12:00:22;77938.22;;;-144.77;61.14
6449;BME280;3257;52.298;13.690;2022-11-11T12:03:20;77946.16;;;-144.77;59.24
6449;BME280;3257;52.298;13.690;2022-11-11T12:06:06;77962.06;;;-144.77;59.77
6449;BME280;3257;52.298;13.690;2022-11-11T12:11:54;78007.78;;;-144.77;59.83
6449;BME280;3257;52.298;13.690;2022-11-11T12:14:36;78015.75;;;-144.77;60.28
6449;BME280;3257;52.298;13.690;2022-11-11T12:27:40;77989.91;;;-144.77;62.10
6449;BME280;3257;52.298;13.690;2022-11-11T12:30:16;77989.91;;;-144.77;63.33
6449;BME280;3257;52.298;13.690;2022-11-11T12:41:02;77995.84;;;-144.77;61.65
6449;BME280;3257;52.298;13.690;2022-11-11T12:43:59;78013.75;;;-144.77;61.23
6449;BME280;3257;52.298;13.690;2022-11-11T12:49:47;78049.53;;;-144.77;62.29
6449;BME280;3257;52.298;13.690;2022-11-11T12:52:42;78035.63;;;-144.77;63.39
6449;BME280;3257;52.298;13.690;2022-11-11T12:55:38;78039.59;;;-144.77;62.64
6449;BME280;3257;52.298;13.690;2022-11-11T13:12:42;78033.63;;;-144.77;65.89
6449;BME280;3257;52.298;13.690;2022-11-11T13:15:24;78033.63;;;-144.77;66.03
6449;BME280;3257;52.298;13.690;2022-11-11T13:17:51;78007.78;;;-144.77;64.87
6449;BME280;3257;52.298;13.690;2022-11-11T13:20:49;78001.81;;;-144.77;64.81
6449;BME280;3257;52.298;13.690;2022-11-11T13:23:18;78021.69;;;-144.77;63.74
6449;BME280;3257;52.298;13.690;2022-11-11T13:25:51;78015.75;;;-144.77;66.21
6449;BME280;3257;52.298;13.690;2022-11-11T13:28:32;78015.75;;;-144.77;66.94
6449;BME280;3257;52.298;13.690;2022-11-11T13:33:54;78011.75;;;-144.77;65.46
6449;BME280;3257;52.298;13.690;2022-11-11T13:36:27;78007.78;;;-144.77;65.08
6449;BME280;3257;52.298;13.690;2022-11-11T13:39:00;78013.75;;;-144.77;65.83
6449;BME280;3257;52.298;13.690;2022-11-11T13:41:41;78013.75;;;-144.77;65.70
6449;BME280;3257;52.298;13.690;2022-11-11T13:47:39;78035.63;;;-144.77;65.10
6449;BME280;3257;52.298;13.690;2022-11-11T13:50:14;78051.53;;;-144.77;65.64
6449;BME280;3257;52.298;13.690;2022-11-11T13:53:03;78047.56;;;-144.77;66.39
6449;BME280;3257;52.298;13.690;2022-11-11T13:55:33;78071.41;;;-144.77;67.10
6449;BME280;3257;52.298;13.690;2022-11-11T13:58:06;78073.41;;;-144.77;66.51
6449;BME280;3257;52.298;13.690;2022-11-11T14:00:37;78087.31;;;-144.77;66.28
6449;BME280;3257;52.298;13.690;2022-11-11T14:05:43;78071.41;;;-144.77;68.87
6449;BME280;3257;52.298;13.690;2022-11-11T14:13:57;78095.25;;;-144.77;68.58
6449;BME280;3257;52.298;13.690;2022-11-11T14:21:53;78115.16;;;-144.77;69.37
6449;BME280;3257;52.298;13.690;2022-11-11T14:24:53;78129.06;;;-144.77;71.17
6449;BME280;3257;52.298;13.690;2022-11-11T14:27:26;78152.91;;;-144.77;71.78
6449;BME280;3257;52.298;13.690;2022-11-11T14:29:54;78142.97;;;-144.77;72.11
6449;BME280;3257;52.298;13.690;2022-11-11T14:35:05;78160.88;;;-144.77;71.84
6449;BME280;3257;52.298;13.690;2022-11-11T14:37:48;78176.78;;;-144.77;72.66
6449;BME280;3257;52.298;13.690;2022-11-11T14:40:29;78182.75;;;-144.77;73.05
6449;BME280;3257;52.298;13.690;2022-11-11T14:42:58;78186.72;;;-144.77;73.64
6449;BME280;3257;52.298;13.690;2022-11-11T14:47:56;78204.59;;;-144.77;73.85
6449;BME280;3257;52.298;13.690;2022-11-11T14:52:58;78216.53;;;-144.77;73.94
6449;BME280;3257;52.298;13.690;2022-11-11T14:55:28;78224.50;;;-144.77;74.27